Flugplatz Stuttgart

Bericht für EDDS

vom 22.03. um 21:50 UTC

Wind 4 kt aus 280°

Sichtweite 10 km oder mehr

gute Sicht, keine Wolken < 5000 ft, keine CB, keine Wettererscheinungen (CAVOK)

Temperatur 6.0°C

Taupunkt 1.0°C

Luftfeuchtigkeit 70%

Luftdruck 1027 hPa

EDDS 222150Z 28004KT CAVOK 06/01 Q1027

Prognose für EDDS

vom 22.03. um 17:00 UTC

Zwischen 18:00 UTC und 11:00 UTC

variable Windrichtung mit 3 kt

Sichtweite 10 km oder mehr

keine signifikanten Wettererscheinungen

keine Wolken


Am 23.03. zwischen 11:00 und 13:00 UTC übergehend zu

Wind 5 kt aus 350°

Sichtweite 10 km oder mehr

keine signifikanten Wettererscheinungen

keine Wolken

TAF EDDS 221700Z 2218/2318 VRB03KT CAVOK BECMG 2311/2313 35005KT
Impressum